createdAt,value
2019-04-13T00:02:24.037Z,98170.09
2019-04-13T00:05:14.762Z,98166.75
2019-04-13T00:07:48.436Z,98166.53
2019-04-13T00:10:31.773Z,98164.29
2019-04-13T00:13:04.218Z,98160.59
2019-04-13T00:15:36.651Z,98158.92
2019-04-13T00:18:08.959Z,98161.63
2019-04-13T00:20:41.331Z,98160.12
2019-04-13T00:23:14.189Z,98154.04
2019-04-13T00:25:46.901Z,98152.11
2019-04-13T00:28:19.259Z,98150.39
2019-04-13T00:30:51.526Z,98149.35
2019-04-13T00:33:24.455Z,98152.23
2019-04-13T00:35:56.458Z,98153.97
2019-04-13T00:38:29.188Z,98152.48
2019-04-13T00:41:01.223Z,98156.14
2019-04-13T00:43:33.770Z,98153.39
2019-04-13T00:46:05.854Z,98153.94
2019-04-13T00:48:37.922Z,98152.81
2019-04-13T00:51:09.913Z,98152.81
2019-04-13T00:53:42.041Z,98156.37
2019-04-13T00:56:14.039Z,98148.75
2019-04-13T00:58:46.233Z,98150.28
2019-04-13T01:01:18.272Z,98151.19
2019-04-13T01:03:50.377Z,98149.73
2019-04-13T01:06:22.672Z,98149.95
2019-04-13T01:08:54.758Z,98156.79
2019-04-13T01:11:27.032Z,98155.73
2019-04-13T01:13:59.541Z,98153.23
2019-04-13T01:16:31.816Z,98151.00
2019-04-13T01:19:04.325Z,98143.28
2019-04-13T01:21:36.722Z,98143.17
2019-04-13T01:24:08.718Z,98139.50
2019-04-13T01:26:40.752Z,98142.31
2019-04-13T01:29:13.523Z,98142.45
2019-04-13T01:31:45.597Z,98145.63
2019-04-13T01:34:18.134Z,98148.69
2019-04-13T01:36:50.943Z,98156.83
2019-04-13T01:39:23.363Z,98157.85
2019-04-13T01:41:55.284Z,98162.33
2019-04-13T01:44:27.369Z,98158.52
2019-04-13T01:46:59.884Z,98159.39
2019-04-13T01:49:31.876Z,98159.49
2019-04-13T01:52:03.801Z,98156.92
2019-04-13T01:54:35.888Z,98154.34
2019-04-13T01:57:08.009Z,98154.98
2019-04-13T01:59:40.165Z,98151.92
2019-04-13T02:02:37.076Z,98154.03
2019-04-13T02:05:37.472Z,98149.95
2019-04-13T02:08:25.453Z,98149.09
2019-04-13T02:11:01.760Z,98146.56
2019-04-13T02:13:33.841Z,98153.25
2019-04-13T02:16:06.376Z,98153.19
2019-04-13T02:18:38.996Z,98160.30
2019-04-13T02:21:11.084Z,98156.50
2019-04-13T02:23:43.161Z,98153.88
2019-04-13T02:26:15.708Z,98154.48
2019-04-13T02:28:48.223Z,98150.14
2019-04-13T02:31:20.333Z,98151.89
2019-04-13T02:33:52.659Z,98149.58
2019-04-13T02:36:25.102Z,98146.63
2019-04-13T02:38:57.518Z,98144.14
2019-04-13T02:41:29.567Z,98142.45
2019-04-13T02:44:02.071Z,98146.28
2019-04-13T02:46:34.199Z,98144.50
2019-04-13T02:49:06.284Z,98145.56
2019-04-13T02:51:39.035Z,98145.75
2019-04-13T02:54:11.089Z,98141.83
2019-04-13T02:56:43.192Z,98145.57
2019-04-13T02:59:15.741Z,98141.23
2019-04-13T03:01:47.840Z,98140.89
2019-04-13T03:04:20.947Z,98143.47
2019-04-13T03:06:53.165Z,98146.17
2019-04-13T03:09:25.225Z,98147.45
2019-04-13T03:11:58.311Z,98142.59
2019-04-13T03:14:30.600Z,98142.22
2019-04-13T03:17:39.386Z,98140.64
2019-04-13T03:20:24.433Z,98135.66
2019-04-13T03:22:56.551Z,98132.73
2019-04-13T03:25:28.667Z,98132.27
2019-04-13T03:28:01.218Z,98127.39
2019-04-13T03:30:37.119Z,98126.77
2019-04-13T03:33:12.108Z,98128.45
2019-04-13T03:35:44.299Z,98122.88
2019-04-13T03:38:16.746Z,98126.63
2019-04-13T03:40:49.184Z,98121.48
2019-04-13T03:43:21.295Z,98122.08
2019-04-13T03:45:53.626Z,98114.36
2019-04-13T03:48:26.074Z,98118.23
2019-04-13T03:50:59.163Z,98120.39
2019-04-13T03:53:31.601Z,98116.70
2019-04-13T03:56:03.940Z,98122.52
2019-04-13T03:58:38.478Z,98117.67
2019-04-13T04:01:10.924Z,98107.48
2019-04-13T04:03:43.031Z,98116.53
2019-04-13T04:06:15.110Z,98118.63
2019-04-13T04:08:47.479Z,98114.45
2019-04-13T04:11:20.348Z,98112.30
2019-04-13T04:13:52.454Z,98113.45
2019-04-13T04:16:24.527Z,98112.41
2019-04-13T04:18:56.649Z,98114.30
2019-04-13T04:21:28.734Z,98115.32
2019-04-13T04:24:00.864Z,98112.56
2019-04-13T04:26:33.666Z,98115.33
2019-04-13T04:29:05.881Z,98115.89
2019-04-13T04:31:37.895Z,98111.97
2019-04-13T04:34:10.352Z,98109.84
2019-04-13T04:36:43.201Z,98104.23
2019-04-13T04:39:15.737Z,98106.50
2019-04-13T04:41:47.812Z,98107.70
2019-04-13T04:44:20.782Z,98103.20
2019-04-13T04:46:52.862Z,98106.05
2019-04-13T04:49:25.302Z,98105.30
2019-04-13T04:51:57.719Z,98102.51
2019-04-13T04:54:29.852Z,98100.12
2019-04-13T04:57:01.948Z,98101.70
2019-04-13T04:59:34.104Z,98099.27
2019-04-13T05:02:06.283Z,98101.13
2019-04-13T05:04:38.399Z,98100.95
2019-04-13T05:07:10.481Z,98107.56
2019-04-13T05:09:42.919Z,98110.28
2019-04-13T05:12:15.000Z,98111.95
2019-04-13T05:14:47.121Z,98114.30
2019-04-13T05:17:19.113Z,98109.72
2019-04-13T05:19:51.519Z,98110.47
2019-04-13T05:22:26.651Z,98105.34
2019-04-13T05:24:57.660Z,98113.04
2019-04-13T05:27:30.514Z,98117.17
2019-04-13T05:30:02.637Z,98123.17
2019-04-13T05:32:35.147Z,98118.99
2019-04-13T05:35:10.212Z,98121.93
2019-04-13T05:37:42.289Z,98124.48
2019-04-13T05:40:14.494Z,98125.83
2019-04-13T05:42:46.570Z,98124.60
2019-04-13T05:45:19.548Z,98123.92
2019-04-13T05:47:52.112Z,98128.60
2019-04-13T05:50:24.175Z,98127.66
2019-04-13T05:52:56.672Z,98125.00
2019-04-13T05:55:28.834Z,98124.60
2019-04-13T05:58:01.359Z,98126.50
2019-04-13T06:00:33.504Z,98126.58
2019-04-13T06:03:07.164Z,98121.50
2019-04-13T06:05:39.599Z,98124.59
2019-04-13T06:08:12.008Z,98128.80
2019-04-13T06:10:44.553Z,98130.02
2019-04-13T06:13:17.058Z,98127.23
2019-04-13T06:15:49.977Z,98126.84
2019-04-13T06:18:23.253Z,98120.80
2019-04-13T06:20:55.367Z,98128.22
2019-04-13T06:23:27.453Z,98125.28
2019-04-13T06:26:03.537Z,98128.22
2019-04-13T06:28:33.280Z,98120.45
2019-04-13T06:31:27.373Z,98122.12
2019-04-13T06:34:13.943Z,98119.27
2019-04-13T06:36:46.071Z,98120.16
2019-04-13T06:39:18.391Z,98118.41
2019-04-13T06:41:50.825Z,98121.80
2019-04-13T06:44:22.832Z,98120.97
2019-04-13T06:46:55.703Z,98120.67
2019-04-13T06:49:27.818Z,98121.14
2019-04-13T06:52:01.631Z,98113.44
2019-04-13T06:54:34.263Z,98117.34
2019-04-13T06:57:06.380Z,98118.25
2019-04-13T06:59:39.344Z,98118.50
2019-04-13T07:02:12.033Z,98115.67
2019-04-13T07:04:44.377Z,98121.34
2019-04-13T07:07:45.891Z,98116.08
2019-04-13T07:10:44.936Z,98117.78
2019-04-13T07:13:29.840Z,98113.64
2019-04-13T07:16:10.425Z,98112.45
2019-04-13T07:18:39.957Z,98109.39
2019-04-13T07:21:12.016Z,98107.02
2019-04-13T07:23:44.390Z,98105.55
2019-04-13T07:26:16.498Z,98106.15
2019-04-13T07:28:49.410Z,98109.79
2019-04-13T07:31:22.126Z,98111.19
2019-04-13T07:33:54.242Z,98116.55
2019-04-13T07:36:26.311Z,98114.81
2019-04-13T07:38:58.855Z,98117.09
2019-04-13T07:41:31.911Z,98113.11
2019-04-13T07:44:06.374Z,98110.61
2019-04-13T07:46:57.196Z,98108.19
2019-04-13T07:49:36.670Z,98116.52
2019-04-13T07:52:19.433Z,98110.54
2019-04-13T07:54:51.681Z,98111.26
2019-04-13T07:57:24.201Z,98110.31
2019-04-13T07:59:57.112Z,98108.97
2019-04-13T08:02:29.938Z,98108.31
2019-04-13T08:05:02.163Z,98109.95
2019-04-13T08:07:34.241Z,98103.66
2019-04-13T08:10:07.154Z,98108.70
2019-04-13T08:12:39.649Z,98106.73
2019-04-13T08:15:12.508Z,98103.77
2019-04-13T08:17:45.651Z,98099.22
2019-04-13T08:20:29.422Z,98099.35
2019-04-13T08:23:01.278Z,98106.56
2019-04-13T08:25:41.861Z,98098.80
2019-04-13T08:28:15.634Z,98095.00
2019-04-13T08:30:49.395Z,98093.30
2019-04-13T08:33:22.493Z,98083.43
2019-04-13T08:35:58.051Z,98081.64
2019-04-13T08:38:28.877Z,98085.79
2019-04-13T08:41:10.718Z,98075.76
2019-04-13T08:43:35.115Z,98073.99
2019-04-13T08:46:07.251Z,98069.62
2019-04-13T08:48:40.271Z,98070.86
2019-04-13T08:51:15.233Z,98067.92
2019-04-13T08:53:46.533Z,98061.34
2019-04-13T08:56:18.983Z,98055.47
2019-04-13T08:58:51.071Z,98050.11
2019-04-13T09:01:24.017Z,98047.63
2019-04-13T09:03:56.130Z,98051.95
2019-04-13T09:06:28.235Z,98047.22
2019-04-13T09:09:02.866Z,98049.09
2019-04-13T09:11:35.270Z,98047.89
2019-04-13T09:14:12.022Z,98037.28
2019-04-13T09:16:41.772Z,98037.89
2019-04-13T09:19:37.992Z,98042.48
2019-04-13T09:22:15.027Z,98039.36
2019-04-13T09:24:48.711Z,98033.56
2019-04-13T09:27:21.978Z,98030.57
2019-04-13T09:29:54.488Z,98029.81
2019-04-13T09:32:28.168Z,98027.73
2019-04-13T09:35:00.750Z,98026.13
2019-04-13T09:37:33.483Z,98026.91
2019-04-13T09:40:06.288Z,98023.59
2019-04-13T09:42:38.733Z,98023.92
2019-04-13T09:45:11.143Z,98008.56
2019-04-13T09:47:43.273Z,98014.69
2019-04-13T09:50:15.673Z,98012.30
2019-04-13T09:52:48.160Z,98003.84
2019-04-13T09:55:20.374Z,98003.33
2019-04-13T09:57:53.045Z,97997.67
2019-04-13T10:00:27.731Z,98003.09
2019-04-13T10:03:01.028Z,97999.07
2019-04-13T10:05:33.572Z,97991.97
2019-04-13T10:08:05.972Z,97988.48
2019-04-13T10:10:38.080Z,97988.39
2019-04-13T10:13:46.121Z,97982.84
2019-04-13T10:16:50.564Z,97980.16
2019-04-13T10:19:22.758Z,97972.48
2019-04-13T10:21:55.269Z,97973.72
2019-04-13T10:24:39.771Z,97970.58
2019-04-13T10:27:12.482Z,97968.63
2019-04-13T10:29:44.614Z,97959.77
2019-04-13T10:32:17.217Z,97956.56
2019-04-13T10:34:49.272Z,97945.48
2019-04-13T10:37:21.354Z,97951.09
2019-04-13T10:39:53.738Z,97957.56
2019-04-13T10:42:25.821Z,97949.34
2019-04-13T10:45:14.535Z,97951.35
2019-04-13T10:48:05.628Z,97957.92
2019-04-13T10:50:41.702Z,97944.11
2019-04-13T10:53:14.659Z,97949.98
2019-04-13T10:55:47.231Z,97944.69
2019-04-13T10:58:19.610Z,97944.33
2019-04-13T11:00:51.699Z,97939.67
2019-04-13T11:03:24.217Z,97941.97
2019-04-13T11:05:56.668Z,97934.30
2019-04-13T11:08:29.515Z,97929.77
2019-04-13T11:11:01.632Z,97927.61
2019-04-13T11:13:34.967Z,97927.09
2019-04-13T11:16:07.190Z,97926.43
2019-04-13T11:18:39.957Z,97921.55
2019-04-13T11:21:14.408Z,97922.66
2019-04-13T11:23:48.782Z,97929.58
2019-04-13T11:26:21.649Z,97934.24
2019-04-13T11:28:54.239Z,97932.53
2019-04-13T11:31:26.790Z,97925.52
2019-04-13T11:33:59.984Z,97927.66
2019-04-13T11:36:32.535Z,97927.37
2019-04-13T11:39:06.791Z,97925.50
2019-04-13T11:42:09.418Z,97919.16
2019-04-13T11:44:50.225Z,97922.30
2019-04-13T11:47:41.607Z,97922.64
2019-04-13T11:50:21.287Z,97922.80
2019-04-13T11:52:53.336Z,97924.01
2019-04-13T11:55:28.456Z,97922.73
2019-04-13T11:58:00.025Z,97921.14
2019-04-13T12:00:49.604Z,97923.72
2019-04-13T12:03:52.842Z,97918.44
2019-04-13T12:06:43.977Z,97916.30
2019-04-13T12:09:31.839Z,97908.58
2019-04-13T12:12:12.494Z,97911.41
2019-04-13T12:14:51.872Z,97912.54
2019-04-13T12:17:51.872Z,97913.73
2019-04-13T12:20:45.966Z,97907.35
2019-04-13T12:23:18.043Z,97905.23
2019-04-13T12:25:50.588Z,97902.75
2019-04-13T12:28:22.773Z,97898.19
2019-04-13T12:30:55.098Z,97915.20
2019-04-13T12:33:27.103Z,97912.42
2019-04-13T12:35:59.659Z,97912.82
2019-04-13T12:38:32.920Z,97912.28
2019-04-13T12:41:15.258Z,97907.84
2019-04-13T12:43:46.464Z,97905.68
2019-04-13T12:46:18.908Z,97905.22
2019-04-13T12:48:52.893Z,97906.44
2019-04-13T12:51:25.064Z,97902.40
2019-04-13T12:53:57.318Z,97901.65
2019-04-13T12:56:29.829Z,97906.91
2019-04-13T12:59:02.137Z,97903.80
2019-04-13T13:01:55.125Z,97909.58
2019-04-13T13:04:30.379Z,97903.32
2019-04-13T13:07:03.805Z,97902.95
2019-04-13T13:09:36.945Z,97903.31
2019-04-13T13:12:09.081Z,97907.79
2019-04-13T13:14:41.809Z,97899.34
2019-04-13T13:17:14.462Z,97896.88
2019-04-13T13:19:46.927Z,97895.27
2019-04-13T13:22:19.373Z,97892.28
2019-04-13T13:24:52.140Z,97888.06
2019-04-13T13:27:25.076Z,97885.22
2019-04-13T13:29:57.525Z,97889.02
2019-04-13T13:32:29.610Z,97888.95
2019-04-13T13:35:02.436Z,97887.44
2019-04-13T13:37:34.656Z,97885.94
2019-04-13T13:40:07.393Z,97882.92
2019-04-13T13:42:40.154Z,97881.53
2019-04-13T13:45:12.862Z,97873.13
2019-04-13T13:47:45.245Z,97878.70
2019-04-13T13:50:21.987Z,97879.88
2019-04-13T13:52:51.924Z,97874.98
2019-04-13T13:55:24.982Z,97873.26
2019-04-13T13:58:09.734Z,97871.98
2019-04-13T14:01:04.152Z,97868.78
2019-04-13T14:03:36.652Z,97867.73
2019-04-13T14:06:09.257Z,97864.38
2019-04-13T14:08:44.316Z,97867.36
2019-04-13T14:11:15.910Z,97870.66
2019-04-13T14:13:48.332Z,97867.27
2019-04-13T14:16:20.567Z,97855.81
2019-04-13T14:18:57.106Z,97860.91
2019-04-13T14:21:26.487Z,97861.02
2019-04-13T14:23:58.612Z,97861.86
2019-04-13T14:26:30.699Z,97861.36
2019-04-13T14:29:02.829Z,97852.58
2019-04-13T14:31:34.924Z,97855.12
2019-04-13T14:34:08.220Z,97852.77
2019-04-13T14:36:40.628Z,97853.81
2019-04-13T14:39:12.750Z,97856.72
2019-04-13T14:41:45.421Z,97855.16
2019-04-13T14:44:19.597Z,97852.62
2019-04-13T14:46:51.586Z,97845.59
2019-04-13T14:49:25.600Z,97847.27
2019-04-13T14:51:58.493Z,97847.02
2019-04-13T14:54:30.933Z,97846.95
2019-04-13T14:57:04.817Z,97846.58
2019-04-13T14:59:37.975Z,97844.02
2019-04-13T15:02:10.487Z,97844.19
2019-04-13T15:04:43.143Z,97844.12
2019-04-13T15:07:15.220Z,97844.76
2019-04-13T15:09:47.378Z,97847.88
2019-04-13T15:12:19.894Z,97845.53
2019-04-13T15:14:51.941Z,97844.19
2019-04-13T15:17:24.036Z,97840.89
2019-04-13T15:20:06.783Z,97837.77
2019-04-13T15:22:31.565Z,97836.00
2019-04-13T15:25:07.476Z,97842.26
2019-04-13T15:27:44.117Z,97847.20
2019-04-13T15:30:16.131Z,97844.89
2019-04-13T15:32:49.411Z,97847.88
2019-04-13T15:35:23.891Z,97848.03
2019-04-13T15:37:56.066Z,97852.75
2019-04-13T15:40:31.379Z,97859.23
2019-04-13T15:43:08.166Z,97863.88
2019-04-13T15:45:42.981Z,97858.48
2019-04-13T15:48:13.861Z,97861.77
2019-04-13T15:50:46.872Z,97860.20
2019-04-13T15:53:18.877Z,97860.55
2019-04-13T15:55:50.962Z,97859.31
2019-04-13T15:58:23.357Z,97849.56
2019-04-13T16:00:56.742Z,97850.28
2019-04-13T16:03:30.405Z,97850.12
2019-04-13T16:06:04.760Z,97854.56
2019-04-13T16:08:49.922Z,97857.45
2019-04-13T16:11:42.343Z,97853.95
2019-04-13T16:14:06.764Z,97850.84
2019-04-13T16:16:39.442Z,97850.21
2019-04-13T16:19:11.816Z,97850.30
2019-04-13T16:21:45.443Z,97853.59
2019-04-13T16:24:18.047Z,97850.48
2019-04-13T16:26:50.748Z,97852.73
2019-04-13T16:29:34.551Z,97855.50
2019-04-13T16:32:18.917Z,97856.52
2019-04-13T16:35:07.977Z,97852.09
2019-04-13T16:37:50.644Z,97854.86
2019-04-13T16:40:23.451Z,97854.44
2019-04-13T16:42:57.207Z,97855.16
2019-04-13T16:45:48.545Z,97849.81
2019-04-13T16:48:38.586Z,97856.10
2019-04-13T16:51:29.255Z,97860.37
2019-04-13T16:54:16.934Z,97863.34
2019-04-13T16:56:56.525Z,97858.47
2019-04-13T16:59:47.822Z,97863.42
2019-04-13T17:02:29.636Z,97862.59
2019-04-13T17:05:07.252Z,97856.61
2019-04-13T17:07:40.495Z,97858.91
2019-04-13T17:10:12.943Z,97854.20
2019-04-13T17:12:47.802Z,97850.41
2019-04-13T17:15:19.894Z,97861.45
2019-04-13T17:17:52.009Z,97859.66
2019-04-13T17:20:32.582Z,97861.05
2019-04-13T17:23:22.279Z,97864.94
2019-04-13T17:26:17.287Z,97868.98
2019-04-13T17:29:07.927Z,97870.41
2019-04-13T17:32:00.064Z,97870.60
2019-04-13T17:35:09.433Z,97873.25
2019-04-13T17:37:44.115Z,97874.36
2019-04-13T17:40:20.302Z,97874.59
2019-04-13T17:43:15.975Z,97875.23
2019-04-13T17:46:13.694Z,97874.79
2019-04-13T17:49:11.456Z,97881.42
2019-04-13T17:52:06.886Z,97881.83
2019-04-13T17:55:07.062Z,97880.75
2019-04-13T17:58:02.582Z,97884.12
2019-04-13T18:01:00.290Z,97887.75
2019-04-13T18:03:50.043Z,97891.23
2019-04-13T18:06:33.683Z,97886.61
2019-04-13T18:09:39.429Z,97897.41
2019-04-13T18:12:40.486Z,97910.83
2019-04-13T18:15:13.812Z,97907.84
2019-04-13T18:17:57.453Z,97908.33
2019-04-13T18:20:32.088Z,97910.50
2019-04-13T18:23:06.755Z,97913.42
2019-04-13T18:25:44.084Z,97919.78
2019-04-13T18:28:12.898Z,97926.80
2019-04-13T18:30:47.086Z,97930.34
2019-04-13T18:33:20.965Z,97937.13
2019-04-13T18:35:53.423Z,97940.19
2019-04-13T18:38:26.769Z,97945.53
2019-04-13T18:40:59.525Z,97939.76
2019-04-13T18:43:33.031Z,97944.08
2019-04-13T18:46:05.587Z,97950.80
2019-04-13T18:48:40.222Z,97952.09
2019-04-13T18:51:14.848Z,97954.64
2019-04-13T18:53:48.546Z,97958.07
2019-04-13T18:56:21.176Z,97961.46
2019-04-13T18:58:54.414Z,97959.44
2019-04-13T19:01:27.061Z,97958.30
2019-04-13T19:04:00.041Z,97964.02
2019-04-13T19:06:32.094Z,97965.49
2019-04-13T19:09:08.104Z,97963.68
2019-04-13T19:11:40.535Z,97968.47
2019-04-13T19:14:12.938Z,97974.26
2019-04-13T19:16:45.908Z,97973.33
2019-04-13T19:19:19.512Z,97976.19
2019-04-13T19:21:51.936Z,97978.41
2019-04-13T19:24:24.339Z,97982.76
2019-04-13T19:26:57.421Z,97978.69
2019-04-13T19:29:29.477Z,97977.14
2019-04-13T19:32:01.593Z,97976.00
2019-04-13T19:34:34.136Z,97982.49
2019-04-13T19:37:06.629Z,97982.73
2019-04-13T19:39:39.418Z,97977.37
2019-04-13T19:42:11.545Z,97980.27
2019-04-13T19:44:43.654Z,97989.13
2019-04-13T19:47:16.614Z,97988.70
2019-04-13T19:49:49.058Z,97982.06
2019-04-13T19:52:33.554Z,97981.09
2019-04-13T19:55:08.300Z,97981.77
2019-04-13T19:57:40.266Z,97984.44
2019-04-13T20:00:18.400Z,97983.69
2019-04-13T20:02:50.952Z,97977.91
2019-04-13T20:05:24.704Z,97979.74
2019-04-13T20:07:57.606Z,97985.42
2019-04-13T20:10:30.698Z,97979.67
2019-04-13T20:13:05.119Z,97982.32
2019-04-13T20:15:39.902Z,97984.77
2019-04-13T20:18:12.843Z,97982.66
2019-04-13T20:20:45.802Z,97989.20
2019-04-13T20:23:17.922Z,97989.30
2019-04-13T20:25:50.883Z,97984.05
2019-04-13T20:28:24.388Z,97980.90
2019-04-13T20:30:59.203Z,97982.38
2019-04-13T20:33:31.458Z,97985.15
2019-04-13T20:36:09.904Z,97977.03
2019-04-13T20:38:38.989Z,97977.80
2019-04-13T20:41:21.797Z,97975.69
2019-04-13T20:44:02.329Z,97979.28
2019-04-13T20:46:29.992Z,97979.52
2019-04-13T20:49:02.155Z,97974.48
2019-04-13T20:51:34.714Z,97971.91
2019-04-13T20:54:07.253Z,97968.01
2019-04-13T20:56:40.448Z,97969.97
2019-04-13T20:59:14.951Z,97971.24
2019-04-13T21:01:47.457Z,97968.06
2019-04-13T21:04:19.530Z,97973.24
2019-04-13T21:06:52.149Z,97970.28
2019-04-13T21:09:24.650Z,97974.08
2019-04-13T21:11:57.202Z,97975.17
2019-04-13T21:14:36.532Z,97979.63
2019-04-13T21:17:03.052Z,97983.14
2019-04-13T21:19:35.521Z,97991.56
2019-04-13T21:22:09.435Z,97992.25
2019-04-13T21:24:41.727Z,97989.99
2019-04-13T21:27:15.923Z,97994.08
2019-04-13T21:29:50.225Z,97988.79
2019-04-13T21:32:22.534Z,97983.88
2019-04-13T21:34:55.123Z,97981.84
2019-04-13T21:37:29.245Z,97986.94
2019-04-13T21:40:01.318Z,97985.77
2019-04-13T21:42:33.688Z,97994.67
2019-04-13T21:45:06.217Z,97995.70
2019-04-13T21:47:40.488Z,97986.10
2019-04-13T21:50:34.959Z,97992.20
2019-04-13T21:53:12.474Z,97995.48
2019-04-13T21:55:46.053Z,97994.19
2019-04-13T21:58:18.408Z,97987.92
2019-04-13T22:01:12.763Z,97995.58
2019-04-13T22:03:44.997Z,97991.30
2019-04-13T22:06:19.046Z,97988.45
2019-04-13T22:08:51.555Z,97988.09
2019-04-13T22:11:23.679Z,97986.36
2019-04-13T22:13:56.065Z,97982.92
2019-04-13T22:16:29.759Z,97982.73
2019-04-13T22:19:02.641Z,97984.91
2019-04-13T22:21:35.194Z,97984.89
2019-04-13T22:24:07.683Z,97978.05
2019-04-13T22:26:39.744Z,97983.55
2019-04-13T22:29:22.723Z,97983.20
2019-04-13T22:32:14.925Z,97983.58
2019-04-13T22:34:55.491Z,97986.97
2019-04-13T22:37:27.645Z,97979.95
2019-04-13T22:39:59.863Z,97975.80
2019-04-13T22:42:31.908Z,97966.73
2019-04-13T22:45:09.242Z,97968.52
2019-04-13T22:47:38.867Z,97964.84
2019-04-13T22:50:22.565Z,97973.81
2019-04-13T22:53:12.351Z,97973.13
2019-04-13T22:55:52.379Z,97977.44
2019-04-13T22:58:25.194Z,97977.12
2019-04-13T23:01:00.569Z,97968.83
2019-04-13T23:03:33.464Z,97972.23
2019-04-13T23:06:05.780Z,97972.89
2019-04-13T23:08:37.902Z,97971.09
2019-04-13T23:11:10.568Z,97975.00
2019-04-13T23:13:42.945Z,97969.22
2019-04-13T23:16:15.343Z,97966.01
2019-04-13T23:18:47.488Z,97963.61
2019-04-13T23:21:21.981Z,97962.73
2019-04-13T23:23:55.087Z,97966.40
2019-04-13T23:26:27.655Z,97966.11
2019-04-13T23:28:59.842Z,97960.28
2019-04-13T23:31:32.543Z,97958.60
2019-04-13T23:34:05.097Z,97959.18
2019-04-13T23:36:37.611Z,97961.00
2019-04-13T23:39:10.592Z,97960.77
2019-04-13T23:41:43.041Z,97952.89
2019-04-13T23:44:15.905Z,97957.28
2019-04-13T23:46:48.725Z,97959.84
2019-04-13T23:49:21.003Z,97960.17
2019-04-13T23:51:53.820Z,97961.84
2019-04-13T23:54:26.181Z,97968.91
2019-04-13T23:57:11.761Z,97971.69
